createdAt,value
2023-08-16T00:01:38.323Z,71.78
2023-08-16T00:04:06.453Z,71.67
2023-08-16T00:06:34.503Z,71.84
2023-08-16T00:09:02.758Z,72.02
2023-08-16T00:11:30.417Z,71.95
2023-08-16T00:13:58.018Z,71.44
2023-08-16T00:16:25.699Z,71.76
2023-08-16T00:18:53.727Z,71.34
2023-08-16T00:21:21.356Z,71.51
2023-08-16T00:23:49.019Z,71.28
2023-08-16T00:26:16.733Z,70.78
2023-08-16T00:28:44.397Z,70.89
2023-08-16T00:31:12.563Z,71.10
2023-08-16T00:33:40.394Z,71.50
2023-08-16T00:36:08.878Z,71.51
2023-08-16T00:38:36.434Z,71.07
2023-08-16T00:41:03.991Z,71.56
2023-08-16T00:43:31.749Z,71.80
2023-08-16T00:45:59.808Z,71.50
2023-08-16T00:48:31.749Z,71.81
2023-08-16T00:51:00.434Z,72.10
2023-08-16T00:53:30.864Z,72.80
2023-08-16T00:56:02.869Z,71.59
2023-08-16T00:58:31.053Z,71.57
2023-08-16T01:00:59.337Z,71.90
2023-08-16T01:03:27.443Z,71.81
2023-08-16T01:05:58.212Z,72.07
2023-08-16T01:08:26.162Z,71.61
2023-08-16T01:11:17.643Z,72.13
2023-08-16T01:14:09.161Z,71.80
2023-08-16T01:16:40.192Z,71.93
2023-08-16T01:19:11.826Z,71.89
2023-08-16T01:21:52.195Z,72.56
2023-08-16T01:24:25.090Z,72.76
2023-08-16T01:26:54.437Z,72.52
2023-08-16T01:29:23.289Z,73.12
2023-08-16T01:31:51.450Z,73.03
2023-08-16T01:34:19.068Z,72.23
2023-08-16T01:36:46.663Z,72.62
2023-08-16T01:39:14.194Z,73.05
2023-08-16T01:41:51.125Z,72.80
2023-08-16T01:44:20.129Z,72.53
2023-08-16T01:46:48.600Z,72.00
2023-08-16T01:49:16.750Z,72.69
2023-08-16T01:51:45.496Z,71.78
2023-08-16T01:54:13.326Z,72.89
2023-08-16T01:56:40.981Z,73.12
2023-08-16T01:59:08.719Z,72.79
2023-08-16T02:01:36.387Z,72.70
2023-08-16T02:04:04.242Z,72.07
2023-08-16T02:06:31.905Z,72.42
2023-08-16T02:08:59.523Z,72.49
2023-08-16T02:11:27.158Z,71.60
2023-08-16T02:13:54.692Z,71.78
2023-08-16T02:16:22.396Z,71.71
2023-08-16T02:18:50.203Z,73.30
2023-08-16T02:21:17.925Z,72.98
2023-08-16T02:23:45.619Z,73.81
2023-08-16T02:26:13.155Z,72.96
2023-08-16T02:28:40.696Z,73.15
2023-08-16T02:31:08.728Z,72.80
2023-08-16T02:33:36.478Z,73.87
2023-08-16T02:36:04.575Z,74.04
2023-08-16T02:38:32.282Z,73.64
2023-08-16T02:40:59.794Z,74.24
2023-08-16T02:43:27.595Z,74.40
2023-08-16T02:45:55.096Z,74.55
2023-08-16T02:48:22.950Z,74.79
2023-08-16T02:50:50.940Z,74.56
2023-08-16T02:53:18.678Z,74.70
2023-08-16T02:55:46.445Z,74.77
2023-08-16T02:58:14.226Z,74.56
2023-08-16T03:00:41.838Z,74.64
2023-08-16T03:03:18.517Z,74.74
2023-08-16T03:05:49.122Z,75.21
2023-08-16T03:08:21.005Z,75.77
2023-08-16T03:10:53.946Z,77.32
2023-08-16T03:13:25.367Z,77.22
2023-08-16T03:16:05.652Z,76.91
2023-08-16T03:18:46.483Z,76.64
2023-08-16T03:21:26.627Z,77.01
2023-08-16T03:23:54.897Z,81.55
2023-08-16T03:26:28.915Z,83.46
2023-08-16T03:29:01.535Z,86.47
2023-08-16T03:31:35.979Z,95.89
2023-08-16T03:34:05.108Z,98.57
2023-08-16T03:36:39.777Z,100.00
2023-08-16T03:39:14.711Z,100.00
2023-08-16T03:41:48.969Z,100.00
2023-08-16T03:44:23.194Z,100.00
2023-08-16T03:47:00.639Z,100.00
2023-08-16T03:49:46.828Z,100.00
2023-08-16T03:52:28.261Z,100.00
2023-08-16T03:55:03.119Z,100.00
2023-08-16T03:57:37.860Z,100.00
2023-08-16T04:00:11.254Z,100.00
2023-08-16T04:02:44.852Z,100.00
2023-08-16T04:05:16.685Z,100.00
2023-08-16T04:07:48.437Z,100.00
2023-08-16T04:10:22.656Z,100.00
2023-08-16T04:12:53.605Z,100.00
2023-08-16T04:15:25.746Z,100.00
2023-08-16T04:17:55.341Z,100.00
2023-08-16T04:20:23.550Z,100.00
2023-08-16T04:22:51.685Z,100.00
2023-08-16T04:25:20.963Z,100.00
2023-08-16T04:27:52.291Z,98.74
2023-08-16T04:30:25.894Z,99.53
2023-08-16T04:32:56.725Z,100.00
2023-08-16T04:35:31.338Z,100.00
2023-08-16T04:38:05.739Z,100.00
2023-08-16T04:40:39.804Z,100.00
2023-08-16T04:43:11.188Z,100.00
2023-08-16T04:45:38.551Z,100.00
2023-08-16T04:48:15.377Z,100.00
2023-08-16T04:50:53.382Z,100.00
2023-08-16T04:53:28.616Z,100.00
2023-08-16T04:56:00.856Z,98.12
2023-08-16T04:58:31.469Z,94.85
2023-08-16T05:01:08.258Z,94.04
2023-08-16T05:03:42.393Z,96.54
2023-08-16T05:06:13.738Z,98.22
2023-08-16T05:08:46.202Z,100.00
2023-08-16T05:11:21.656Z,99.78
2023-08-16T05:13:53.047Z,100.00
2023-08-16T05:16:24.808Z,100.00
2023-08-16T05:19:02.257Z,100.00
2023-08-16T05:21:32.824Z,100.00
2023-08-16T05:24:19.838Z,100.00
2023-08-16T05:26:58.736Z,100.00
2023-08-16T05:29:32.914Z,100.00
2023-08-16T05:32:13.202Z,100.00
2023-08-16T05:34:47.344Z,100.00
2023-08-16T05:37:18.234Z,100.00
2023-08-16T05:39:54.066Z,100.00
2023-08-16T05:42:30.597Z,100.00
2023-08-16T05:45:02.035Z,100.00
2023-08-16T05:47:33.063Z,100.00
2023-08-16T05:50:06.756Z,100.00
2023-08-16T05:52:38.219Z,97.93
2023-08-16T05:55:06.150Z,99.72
2023-08-16T05:57:36.399Z,100.00
2023-08-16T06:00:06.853Z,98.41
2023-08-16T06:02:41.540Z,98.64
2023-08-16T06:05:09.918Z,99.84
2023-08-16T06:07:41.044Z,100.00
2023-08-16T06:10:24.623Z,95.43
2023-08-16T06:12:58.554Z,89.22
2023-08-16T06:15:29.236Z,89.60
2023-08-16T06:18:00.644Z,83.46
2023-08-16T06:20:31.871Z,83.04
2023-08-16T06:23:02.459Z,74.52
2023-08-16T06:25:36.224Z,78.99
2023-08-16T06:28:04.784Z,76.56
2023-08-16T06:30:41.236Z,73.05
2023-08-16T06:33:09.168Z,71.44
2023-08-16T06:35:43.026Z,68.06
2023-08-16T06:38:13.586Z,67.12
2023-08-16T06:40:41.275Z,67.35
2023-08-16T06:43:08.911Z,68.99
2023-08-16T06:45:36.400Z,64.62
2023-08-16T06:48:04.564Z,65.64
2023-08-16T06:50:32.312Z,67.22
2023-08-16T06:53:00.295Z,67.32
2023-08-16T06:55:28.025Z,64.50
2023-08-16T06:57:55.714Z,65.07
2023-08-16T07:00:26.080Z,64.15
2023-08-16T07:02:53.831Z,64.90
2023-08-16T07:05:24.515Z,63.89
2023-08-16T07:07:51.976Z,63.70
2023-08-16T07:10:20.146Z,64.84
2023-08-16T07:12:47.901Z,65.12
2023-08-16T07:15:15.705Z,66.59
2023-08-16T07:17:43.489Z,66.46
2023-08-16T07:20:11.626Z,65.64
2023-08-16T07:22:39.629Z,66.04
2023-08-16T07:25:10.887Z,65.01
2023-08-16T07:27:38.321Z,66.01
2023-08-16T07:30:09.339Z,65.78
2023-08-16T07:32:42.879Z,65.15
2023-08-16T07:35:10.918Z,65.22
2023-08-16T07:37:44.820Z,64.33
2023-08-16T07:40:18.178Z,63.99
2023-08-16T07:42:45.722Z,62.99
2023-08-16T07:45:15.388Z,64.33
2023-08-16T07:47:43.161Z,64.52
2023-08-16T07:50:17.581Z,64.74
2023-08-16T07:52:48.559Z,63.18
2023-08-16T07:55:20.280Z,63.01
2023-08-16T07:57:54.844Z,62.62
2023-08-16T08:00:28.538Z,62.97
2023-08-16T08:03:06.472Z,65.07
2023-08-16T08:05:37.491Z,64.81
2023-08-16T08:08:09.838Z,63.69
2023-08-16T08:10:46.020Z,64.54
2023-08-16T08:13:14.779Z,64.47
2023-08-16T08:15:52.135Z,62.95
2023-08-16T08:18:23.647Z,61.91
2023-08-16T08:21:00.214Z,62.97
2023-08-16T08:23:34.251Z,63.72
2023-08-16T08:26:04.525Z,64.51
2023-08-16T08:28:41.009Z,63.81
2023-08-16T08:31:14.644Z,63.27
2023-08-16T08:33:49.238Z,62.66
2023-08-16T08:36:20.328Z,61.95
2023-08-16T08:38:51.704Z,61.56
2023-08-16T08:41:45.940Z,62.67
2023-08-16T08:44:21.596Z,63.14
2023-08-16T08:47:00.317Z,62.09
2023-08-16T08:49:42.149Z,61.40
2023-08-16T08:52:16.872Z,62.34
2023-08-16T08:54:51.092Z,62.55
2023-08-16T08:57:20.243Z,61.06
2023-08-16T08:59:52.320Z,59.87
2023-08-16T09:02:27.391Z,62.57
2023-08-16T09:05:03.033Z,62.71
2023-08-16T09:07:41.565Z,64.21
2023-08-16T09:10:10.461Z,64.07
2023-08-16T09:12:42.236Z,63.92
2023-08-16T09:15:18.172Z,62.89
2023-08-16T09:17:49.386Z,64.49
2023-08-16T09:20:17.515Z,65.72
2023-08-16T09:22:49.045Z,65.71
2023-08-16T09:25:20.330Z,67.37
2023-08-16T09:27:54.629Z,68.90
2023-08-16T09:30:22.615Z,69.53
2023-08-16T09:32:55.383Z,69.98
2023-08-16T09:35:54.181Z,70.22
2023-08-16T09:41:00.206Z,71.17
2023-08-16T09:43:33.309Z,71.79
2023-08-16T09:46:07.683Z,72.86
2023-08-16T09:51:20.036Z,70.83
2023-08-16T09:53:51.952Z,68.64
2023-08-16T09:59:03.957Z,65.57
2023-08-16T10:01:52.823Z,65.58
2023-08-16T10:09:43.585Z,63.88
2023-08-16T10:12:18.447Z,64.15
2023-08-16T10:14:52.896Z,62.43
2023-08-16T10:17:25.719Z,62.78
2023-08-16T10:20:00.092Z,63.92
2023-08-16T10:22:45.984Z,64.14
2023-08-16T10:25:20.544Z,65.87
2023-08-16T10:27:48.765Z,63.03
2023-08-16T10:30:29.665Z,63.18
2023-08-16T10:33:05.048Z,63.00
2023-08-16T10:35:35.909Z,63.30
2023-08-16T10:38:09.373Z,64.62
2023-08-16T10:40:41.117Z,64.17
2023-08-16T10:43:15.870Z,62.68
2023-08-16T10:48:31.987Z,63.15
2023-08-16T10:51:03.711Z,63.60
2023-08-16T10:53:35.938Z,64.24
2023-08-16T10:56:10.366Z,64.33
2023-08-16T10:58:50.951Z,64.95
2023-08-16T11:01:31.254Z,64.98
2023-08-16T11:04:02.651Z,63.87
2023-08-16T11:06:34.326Z,63.75
2023-08-16T11:09:09.191Z,63.83
2023-08-16T11:11:49.744Z,63.85
2023-08-16T11:14:21.748Z,63.61
2023-08-16T11:16:58.212Z,64.00
2023-08-16T11:19:29.886Z,65.13
2023-08-16T11:22:01.844Z,64.74
2023-08-16T11:24:32.998Z,65.55
2023-08-16T11:27:06.034Z,64.92
2023-08-16T11:29:37.016Z,64.65
2023-08-16T11:32:12.318Z,63.29
2023-08-16T11:34:44.199Z,63.42
2023-08-16T11:37:21.043Z,63.69
2023-08-16T11:40:02.128Z,63.43
2023-08-16T11:42:33.147Z,62.83
2023-08-16T11:45:21.106Z,63.15
2023-08-16T11:47:55.205Z,62.45
2023-08-16T11:50:26.862Z,61.87
2023-08-16T11:53:04.486Z,61.66
2023-08-16T11:55:41.002Z,61.46
2023-08-16T11:58:14.700Z,62.01
2023-08-16T12:00:43.218Z,62.17
2023-08-16T12:03:21.218Z,61.46
2023-08-16T12:06:05.812Z,59.98
2023-08-16T12:08:36.895Z,60.24
2023-08-16T12:11:08.967Z,61.11
2023-08-16T12:13:40.276Z,60.74
2023-08-16T12:16:20.237Z,60.51
2023-08-16T12:18:51.155Z,60.76
2023-08-16T12:21:28.723Z,60.91
2023-08-16T12:23:59.844Z,60.82
2023-08-16T12:26:33.812Z,60.68
2023-08-16T12:29:04.501Z,60.33
2023-08-16T12:31:35.956Z,61.08
2023-08-16T12:34:05.870Z,61.23
2023-08-16T12:36:42.962Z,61.67
2023-08-16T12:39:15.983Z,61.74
2023-08-16T12:41:46.350Z,61.44
2023-08-16T12:44:20.189Z,61.34
2023-08-16T12:46:51.017Z,61.98
2023-08-16T12:49:22.369Z,61.79
2023-08-16T12:51:58.405Z,61.83
2023-08-16T12:54:26.200Z,62.24
2023-08-16T12:57:06.087Z,62.86
2023-08-16T12:59:51.680Z,62.36
2023-08-16T13:02:36.709Z,63.28
2023-08-16T13:05:12.731Z,62.87
2023-08-16T13:10:24.957Z,62.16
2023-08-16T13:15:39.919Z,61.99
2023-08-16T13:20:45.473Z,62.34
2023-08-16T13:23:33.995Z,61.71
2023-08-16T13:26:14.391Z,62.18
2023-08-16T13:28:49.521Z,62.44
2023-08-16T13:32:00.623Z,62.71
2023-08-16T13:37:24.398Z,62.01
2023-08-16T13:47:46.160Z,62.41
2023-08-16T13:50:17.629Z,62.64
2023-08-16T13:52:53.281Z,62.55
2023-08-16T13:55:27.036Z,62.66
2023-08-16T13:58:00.506Z,62.92
2023-08-16T14:00:33.289Z,62.91
2023-08-16T14:03:05.851Z,62.02
2023-08-16T14:05:41.056Z,62.38
2023-08-16T14:08:12.292Z,62.87
2023-08-16T14:11:03.718Z,63.13
2023-08-16T14:13:37.956Z,62.83
2023-08-16T14:16:15.155Z,61.75
2023-08-16T14:18:43.485Z,62.18
2023-08-16T14:21:14.926Z,62.16
2023-08-16T14:23:47.374Z,62.84
2023-08-16T14:26:21.196Z,62.75
2023-08-16T14:28:57.399Z,61.85
2023-08-16T14:31:34.379Z,62.91
2023-08-16T14:34:09.119Z,62.32
2023-08-16T14:36:39.805Z,62.79
2023-08-16T14:39:10.443Z,62.19
2023-08-16T14:41:38.995Z,62.61
2023-08-16T14:44:07.623Z,62.59
2023-08-16T14:46:46.646Z,62.49
2023-08-16T14:49:20.573Z,62.71
2023-08-16T14:51:54.356Z,62.77
2023-08-16T14:54:25.595Z,63.01
2023-08-16T14:56:57.887Z,62.87
2023-08-16T14:59:29.220Z,62.69
2023-08-16T15:02:04.846Z,62.20
2023-08-16T15:04:41.108Z,62.37
2023-08-16T15:07:12.735Z,62.07
2023-08-16T15:09:49.962Z,62.06
2023-08-16T15:12:21.575Z,62.32
2023-08-16T15:14:53.673Z,62.54
2023-08-16T15:17:28.191Z,61.69
2023-08-16T15:19:59.650Z,62.44
2023-08-16T15:22:31.171Z,62.21
2023-08-16T15:25:02.150Z,62.61
2023-08-16T15:27:36.197Z,63.27
2023-08-16T15:30:07.013Z,63.28
2023-08-16T15:32:41.511Z,63.49
2023-08-16T15:35:16.468Z,63.89
2023-08-16T15:37:44.793Z,63.88
2023-08-16T15:40:16.680Z,63.77
2023-08-16T15:42:53.587Z,63.92
2023-08-16T15:45:24.516Z,64.61
2023-08-16T15:47:59.752Z,64.59
2023-08-16T15:50:33.057Z,64.59
2023-08-16T15:53:05.526Z,65.08
2023-08-16T15:55:36.818Z,65.46
2023-08-16T15:58:09.049Z,65.81
2023-08-16T16:00:43.728Z,65.73
2023-08-16T16:03:14.126Z,66.20
2023-08-16T16:05:50.811Z,66.19
2023-08-16T16:08:19.156Z,66.20
2023-08-16T16:10:49.722Z,67.04
2023-08-16T16:13:24.063Z,66.41
2023-08-16T16:15:57.902Z,66.38
2023-08-16T16:18:32.072Z,67.04
2023-08-16T16:21:02.987Z,67.29
2023-08-16T16:23:36.977Z,67.95
2023-08-16T16:26:20.236Z,67.95
2023-08-16T16:28:51.201Z,68.50
2023-08-16T16:31:19.775Z,68.32
2023-08-16T16:33:50.789Z,69.92
2023-08-16T16:36:28.721Z,70.41
2023-08-16T16:39:04.275Z,71.14
2023-08-16T16:41:36.316Z,70.37
2023-08-16T16:44:04.718Z,70.32
2023-08-16T16:46:39.152Z,71.27
2023-08-16T16:49:09.495Z,70.21
2023-08-16T16:51:45.744Z,70.49
2023-08-16T16:54:16.564Z,70.86
2023-08-16T16:56:46.999Z,70.61
2023-08-16T16:59:22.824Z,70.97
2023-08-16T17:01:58.036Z,71.96
2023-08-16T17:04:34.396Z,73.49
2023-08-16T17:07:08.222Z,73.63
2023-08-16T17:09:42.979Z,73.93
2023-08-16T17:12:20.412Z,73.21
2023-08-16T17:14:51.867Z,73.67
2023-08-16T17:17:27.479Z,74.58
2023-08-16T17:19:58.738Z,74.39
2023-08-16T17:22:36.132Z,74.21
2023-08-16T17:25:12.517Z,75.11
2023-08-16T17:27:43.479Z,75.66
2023-08-16T17:30:13.946Z,76.13
2023-08-16T17:32:48.177Z,76.24
2023-08-16T17:35:15.845Z,77.48
2023-08-16T17:37:46.222Z,78.21
2023-08-16T17:40:23.711Z,78.69
2023-08-16T17:42:52.117Z,78.82
2023-08-16T17:45:22.494Z,78.58
2023-08-16T17:47:52.711Z,79.56
2023-08-16T17:50:20.186Z,80.93
2023-08-16T17:52:51.429Z,80.92
2023-08-16T17:55:21.980Z,80.22
2023-08-16T17:57:57.065Z,81.09
2023-08-16T18:00:24.997Z,81.34
2023-08-16T18:02:55.428Z,81.54
2023-08-16T18:05:26.448Z,82.09
2023-08-16T18:07:53.857Z,83.30
2023-08-16T18:10:21.397Z,83.75
2023-08-16T18:12:48.878Z,84.46
2023-08-16T18:15:16.591Z,84.42
2023-08-16T18:17:44.212Z,84.76
2023-08-16T18:20:12.561Z,84.43
2023-08-16T18:22:46.049Z,84.04
2023-08-16T18:25:20.670Z,84.48
2023-08-16T18:27:48.134Z,82.93
2023-08-16T18:30:20.762Z,84.36
2023-08-16T18:32:50.943Z,84.00
2023-08-16T18:35:19.603Z,85.42
2023-08-16T18:37:56.663Z,85.22
2023-08-16T18:40:30.058Z,86.22
2023-08-16T18:43:03.684Z,85.78
2023-08-16T18:45:32.584Z,86.30
2023-08-16T18:48:06.188Z,87.38
2023-08-16T18:50:34.363Z,86.17
2023-08-16T18:53:02.248Z,86.22
2023-08-16T18:55:30.734Z,86.55
2023-08-16T18:58:01.091Z,86.57
2023-08-16T19:00:32.041Z,87.34
2023-08-16T19:02:59.615Z,88.50
2023-08-16T19:05:34.211Z,88.11
2023-08-16T19:08:07.559Z,88.63
2023-08-16T19:10:41.501Z,88.79
2023-08-16T19:13:14.708Z,89.57
2023-08-16T19:15:45.708Z,89.68
2023-08-16T19:18:13.639Z,87.80
2023-08-16T19:20:41.307Z,87.90
2023-08-16T19:23:10.116Z,89.14
2023-08-16T19:25:45.648Z,89.59
2023-08-16T19:28:16.392Z,89.91
2023-08-16T19:30:44.658Z,90.42
2023-08-16T19:33:20.591Z,89.50
2023-08-16T19:35:52.174Z,89.35
2023-08-16T19:38:25.439Z,89.34
2023-08-16T19:40:58.840Z,89.40
2023-08-16T19:43:31.861Z,88.28
2023-08-16T19:45:59.417Z,86.97
2023-08-16T19:48:33.265Z,87.39
2023-08-16T19:51:07.205Z,87.11
2023-08-16T19:53:37.738Z,87.40
2023-08-16T19:56:08.777Z,84.27
2023-08-16T19:58:37.540Z,83.96
2023-08-16T20:01:07.217Z,81.25
2023-08-16T20:03:38.418Z,79.60
2023-08-16T20:06:05.981Z,78.03
2023-08-16T20:08:33.374Z,77.13
2023-08-16T20:11:00.917Z,75.80
2023-08-16T20:13:28.478Z,75.38
2023-08-16T20:15:55.786Z,74.69
2023-08-16T20:18:23.407Z,74.29
2023-08-16T20:20:53.991Z,73.90
2023-08-16T20:23:21.254Z,73.18
2023-08-16T20:25:48.828Z,73.29
2023-08-16T20:28:16.222Z,72.16
2023-08-16T20:30:46.308Z,71.18
2023-08-16T20:33:16.450Z,71.30
2023-08-16T20:35:44.055Z,71.61
2023-08-16T20:38:11.485Z,71.61
2023-08-16T20:40:38.899Z,70.93
2023-08-16T20:43:06.464Z,70.40
2023-08-16T20:45:33.883Z,70.02
2023-08-16T20:48:01.389Z,69.69
2023-08-16T20:50:28.899Z,69.35
2023-08-16T20:52:56.248Z,68.80
2023-08-16T20:55:25.738Z,68.29
2023-08-16T20:57:56.760Z,67.38
2023-08-16T21:00:28.282Z,68.06
2023-08-16T21:02:55.816Z,66.92
2023-08-16T21:05:23.756Z,66.95
2023-08-16T21:07:51.202Z,66.52
2023-08-16T21:10:18.710Z,67.00
2023-08-16T21:12:46.166Z,66.78
2023-08-16T21:15:13.616Z,67.12
2023-08-16T21:17:41.099Z,66.88
2023-08-16T21:20:08.988Z,67.02
2023-08-16T21:22:36.374Z,67.04
2023-08-16T21:25:04.362Z,66.93
2023-08-16T21:27:32.302Z,67.17
2023-08-16T21:29:59.828Z,67.06
2023-08-16T21:32:27.373Z,66.89
2023-08-16T21:34:54.716Z,65.86
2023-08-16T21:37:27.542Z,65.74
2023-08-16T21:40:00.834Z,65.57
2023-08-16T21:42:31.782Z,65.58
2023-08-16T21:45:00.859Z,64.76
2023-08-16T21:47:28.759Z,65.55
2023-08-16T21:49:56.776Z,65.37
2023-08-16T21:52:24.532Z,65.87
2023-08-16T21:54:55.206Z,64.73
2023-08-16T21:57:24.444Z,64.78
2023-08-16T21:59:56.049Z,64.80
2023-08-16T22:02:23.768Z,64.11
2023-08-16T22:04:51.546Z,64.34
2023-08-16T22:07:19.188Z,64.65
2023-08-16T22:09:46.891Z,64.59
2023-08-16T22:12:14.619Z,64.77
2023-08-16T22:14:42.051Z,64.83
2023-08-16T22:17:10.415Z,65.32
2023-08-16T22:19:38.803Z,65.32
2023-08-16T22:22:06.378Z,65.04
2023-08-16T22:24:33.799Z,65.32
2023-08-16T22:27:01.821Z,65.90
2023-08-16T22:29:31.367Z,65.90
2023-08-16T22:31:59.199Z,66.21
2023-08-16T22:34:26.776Z,65.52
2023-08-16T22:36:54.370Z,66.14
2023-08-16T22:39:22.020Z,66.50
2023-08-16T22:41:49.670Z,66.16
2023-08-16T22:44:17.306Z,66.45
2023-08-16T22:46:50.486Z,66.50
2023-08-16T22:49:18.129Z,66.97
2023-08-16T22:51:48.846Z,67.44
2023-08-16T22:54:16.373Z,67.70
2023-08-16T22:56:43.995Z,67.37
2023-08-16T22:59:11.574Z,67.68
2023-08-16T23:01:39.191Z,68.40
2023-08-16T23:04:09.510Z,68.67
2023-08-16T23:06:37.112Z,68.53
2023-08-16T23:09:05.217Z,69.00
2023-08-16T23:11:32.923Z,68.88
2023-08-16T23:14:00.886Z,69.64
2023-08-16T23:16:31.648Z,69.92
2023-08-16T23:19:00.535Z,69.96
2023-08-16T23:21:28.501Z,69.87
2023-08-16T23:23:56.135Z,70.77
2023-08-16T23:26:23.974Z,70.29
2023-08-16T23:28:51.534Z,71.05
2023-08-16T23:31:19.363Z,70.89
2023-08-16T23:33:46.862Z,70.74
2023-08-16T23:36:14.332Z,71.25
2023-08-16T23:38:41.876Z,71.13
2023-08-16T23:41:09.324Z,71.51
2023-08-16T23:43:36.939Z,71.80
2023-08-16T23:46:05.627Z,71.62
2023-08-16T23:48:33.367Z,71.90
2023-08-16T23:51:00.927Z,72.02
2023-08-16T23:53:28.484Z,72.08
2023-08-16T23:55:55.964Z,72.17
2023-08-16T23:58:23.472Z,72.32
